Time;durP1;ratioP1;P1;durP2;ratioP2;P2;SDS_P1;SDS_P2;PMS_P1;PMS_P2;Temp;Humidity;BMP_temperature;BMP_pressure;BME280_temperature;BME280_humidity;BME280_pressure;Samples;Min_cycle;Max_cycle;Signal;HPM_P1;HPM_P2
2022/01/19 00:00:39;;;;;;;26.88;9.85;;;;;;;-149.78;100.00;50518.38;5074221;28;20530;-65
2022/01/19 00:03:04;;;;;;;29.65;10.05;;;;;;;-149.78;100.00;50506.66;5074268;28;20064;-64
2022/01/19 00:05:31;;;;;;;29.23;9.57;;;;;;;-149.78;100.00;50471.44;5071559;28;20036;-65
2022/01/19 00:07:57;;;;;;;24.55;9.55;;;;;;;-149.78;100.00;50479.28;5074396;28;20540;-65
2022/01/19 00:10:27;;;;;;;25.17;9.93;;;;;;;-149.78;100.00;50430.38;5056450;28;20124;-65
2022/01/19 00:12:58;;;;;;;27.38;9.77;;;;;;;-149.78;100.00;50479.28;5074378;28;20044;-65
2022/01/19 00:15:26;;;;;;;24.73;9.93;;;;;;;-149.78;100.00;50487.09;5074476;28;20036;-66
2022/01/19 00:17:57;;;;;;;23.17;9.43;;;;;;;-149.78;100.00;50475.34;5074456;28;20048;-66
2022/01/19 00:20:25;;;;;;;22.80;9.98;;;;;;;-149.78;100.00;50471.44;5074404;28;20512;-66
2022/01/19 00:22:51;;;;;;;29.10;10.27;;;;;;;-149.78;100.00;50485.13;5074374;28;20086;-66
2022/01/19 00:25:17;;;;;;;25.65;9.85;;;;;;;-149.78;100.00;50479.28;5074467;28;20067;-66
2022/01/19 00:27:43;;;;;;;22.65;9.98;;;;;;;-149.78;100.00;50506.66;5074278;28;20170;-65
2022/01/19 00:30:09;;;;;;;25.35;9.40;;;;;;;-149.78;100.00;50461.66;5074075;28;20116;-65
2022/01/19 00:32:35;;;;;;;26.17;10.45;;;;;;;-149.78;100.00;50502.75;5073352;28;20055;-65
2022/01/19 00:35:02;;;;;;;21.73;9.93;;;;;;;-149.78;100.00;50514.47;5074064;28;20037;-65
2022/01/19 00:37:28;;;;;;;25.88;9.73;;;;;;;-149.78;100.00;50447.97;5073111;28;20120;-64
2022/01/19 00:39:53;;;;;;;26.55;10.15;;;;;;;-149.78;100.00;50535.97;5072791;28;20032;-64
2022/01/19 00:42:19;;;;;;;24.60;9.80;;;;;;;-149.78;100.00;50492.97;5073345;28;20044;-65
2022/01/19 00:44:46;;;;;;;24.63;9.27;;;;;;;-149.78;100.00;50481.22;5073754;28;20093;-64
2022/01/19 00:47:12;;;;;;;28.88;9.55;;;;;;;-149.78;100.00;50447.97;5073840;28;20085;-65
2022/01/19 00:49:39;;;;;;;26.50;9.02;;;;;;;-149.78;100.00;50479.28;5055991;28;20425;-65
2022/01/19 00:52:05;;;;;;;24.58;9.57;;;;;;;-149.78;100.00;50522.28;5073860;28;20087;-65
2022/01/19 00:54:31;;;;;;;27.65;9.77;;;;;;;-149.78;100.00;50487.09;5073400;28;20060;-65
2022/01/19 00:56:57;;;;;;;28.33;10.30;;;;;;;-149.78;100.00;50479.28;5073606;28;20044;-65
2022/01/19 00:59:23;;;;;;;23.65;8.82;;;;;;;-149.78;100.00;50473.41;5073544;28;20040;-64
2022/01/19 01:01:48;;;;;;;26.00;9.93;;;;;;;-149.78;100.00;50491.00;5073467;28;20147;-65
2022/01/19 01:04:14;;;;;;;22.63;9.05;;;;;;;-149.78;100.00;50498.81;5071438;28;20043;-64
2022/01/19 01:06:40;;;;;;;30.38;10.38;;;;;;;-149.78;100.00;50502.75;5073036;28;20090;-65
2022/01/19 01:09:06;;;;;;;21.65;9.68;;;;;;;-149.78;100.00;50461.66;5073308;28;20119;-65
2022/01/19 01:11:37;;;;;;;25.48;9.77;;;;;;;-149.78;100.00;50471.44;5073280;28;20063;-65
2022/01/19 01:16:40;;;;;;;25.00;10.10;;;;;;;-149.78;100.00;50475.34;5073311;28;20048;-65
2022/01/19 01:19:10;;;;;;;28.73;10.00;;;;;;;-149.78;100.00;50494.91;5073542;28;20036;-65
2022/01/19 01:21:36;;;;;;;29.45;10.38;;;;;;;-149.78;100.00;50444.06;5072972;28;20040;-65
2022/01/19 01:24:03;;;;;;;25.90;9.25;;;;;;;-149.78;100.00;50506.66;5073328;28;20040;-65
2022/01/19 01:26:29;;;;;;;24.00;9.57;;;;;;;-149.78;100.00;50467.53;5073318;28;20119;-65
2022/01/19 01:28:55;;;;;;;26.75;10.32;;;;;;;-149.78;100.00;50479.28;5073067;28;20123;-65
2022/01/19 01:31:20;;;;;;;23.58;9.63;;;;;;;-149.78;100.00;50508.59;5072997;28;20125;-65
2022/01/19 01:33:46;;;;;;;25.85;9.48;;;;;;;-149.78;100.00;50514.47;5072519;28;20048;-65
2022/01/19 01:36:12;;;;;;;23.13;9.10;;;;;;;-149.78;100.00;50492.97;5072707;28;20037;-65
2022/01/19 01:38:37;;;;;;;26.60;9.60;;;;;;;-149.78;100.00;50451.88;5071720;28;20085;-65
2022/01/19 01:41:05;;;;;;;29.98;9.32;;;;;;;-149.78;100.00;50463.63;5072659;28;20040;-65
2022/01/19 01:43:31;;;;;;;20.75;8.20;;;;;;;-149.78;100.00;50510.56;5072001;28;20024;-65
2022/01/19 01:46:03;;;;;;;23.75;10.10;;;;;;;-149.78;100.00;50494.91;5073095;28;20055;-65
2022/01/19 01:48:29;;;;;;;25.52;9.63;;;;;;;-149.78;100.00;50483.19;5072979;28;20468;-65
2022/01/19 01:53:38;;;;;;;24.83;9.00;;;;;;;-149.78;100.00;50479.28;5072541;28;20835;-65
2022/01/19 01:56:07;;;;;;;23.67;8.95;;;;;;;-149.78;100.00;50487.09;5072944;28;20033;-65
2022/01/19 01:58:36;;;;;;;23.17;9.45;;;;;;;-149.78;100.00;50502.75;5072828;28;20473;-65
2022/01/19 02:01:03;;;;;;;26.23;9.80;;;;;;;-149.78;100.00;50432.31;5072680;28;20029;-65
2022/01/19 02:03:37;;;;;;;22.83;9.73;;;;;;;-149.78;100.00;50504.69;5072472;28;20123;-65
2022/01/19 02:09:13;;;;;;;29.17;9.50;;;;;;;-149.78;100.00;50487.09;5055097;28;20597;-65
2022/01/19 02:23:19;;;;;;;20.45;8.18;;;;;;;-149.78;100.00;50487.09;5072348;28;20043;-65
2022/01/19 02:25:54;;;;;;;20.10;8.63;;;;;;;-149.78;100.00;50465.56;5072609;28;20036;-65
2022/01/19 02:36:38;;;;;;;18.48;8.13;;;;;;;-149.78;100.00;50487.09;5072223;28;20103;-65
2022/01/19 02:41:50;;;;;;;28.60;9.40;;;;;;;-149.78;100.00;50510.56;5072062;28;20083;-65
2022/01/19 02:44:31;;;;;;;20.23;8.98;;;;;;;-149.78;100.00;50494.91;5072375;28;20565;-65
2022/01/19 02:49:41;;;;;;;22.70;8.77;;;;;;;-149.78;100.00;50471.44;5072217;28;20131;-66
2022/01/19 02:52:07;;;;;;;23.17;9.07;;;;;;;-149.78;100.00;50479.28;5072218;28;20115;-66
2022/01/19 02:54:33;;;;;;;24.08;9.80;;;;;;;-149.78;100.00;50467.53;5072261;28;20456;-66
2022/01/19 02:57:02;;;;;;;24.92;9.30;;;;;;;-149.78;100.00;50451.88;5075913;28;20039;-66
2022/01/19 03:10:28;;;;;;;20.20;8.93;;;;;;;-149.78;100.00;50510.56;5075693;28;20060;-66
2022/01/19 03:12:54;;;;;;;27.38;9.82;;;;;;;-149.78;100.00;50475.34;5075505;28;20549;-66
2022/01/19 03:15:20;;;;;;;25.05;9.20;;;;;;;-149.78;100.00;50451.88;5075591;28;20028;-66
2022/01/19 03:17:45;;;;;;;22.33;10.20;;;;;;;-149.78;100.00;50469.50;5075464;28;20040;-66
2022/01/19 03:20:12;;;;;;;23.45;9.57;;;;;;;-149.78;100.00;50487.09;5066111;28;20056;-65
2022/01/19 03:22:58;;;;;;;32.03;10.45;;;;;;;-149.78;100.00;50491.00;5069065;28;20029;-65
2022/01/19 03:25:24;;;;;;;27.45;11.45;;;;;;;-149.78;100.00;50463.63;5075367;28;20099;-65
2022/01/19 03:27:50;;;;;;;27.50;10.95;;;;;;;-149.78;100.00;50491.00;5075075;28;20425;-65
2022/01/19 03:30:17;;;;;;;22.25;9.82;;;;;;;-149.78;100.00;50455.81;5075234;28;20027;-65
2022/01/19 03:32:43;;;;;;;25.25;9.73;;;;;;;-149.78;100.00;50473.41;5057241;28;20033;-65
2022/01/19 03:35:10;;;;;;;29.25;10.05;;;;;;;-149.78;100.00;50457.75;5057102;28;20510;-65
2022/01/19 03:37:36;;;;;;;24.95;10.10;;;;;;;-149.78;100.00;50473.41;5074234;28;20028;-65
2022/01/19 03:40:04;;;;;;;23.50;10.73;;;;;;;-149.78;100.00;50475.34;5074229;28;20045;-65
2022/01/19 03:42:29;;;;;;;28.77;9.63;;;;;;;-149.78;100.00;50471.44;5074893;28;20532;-65
2022/01/19 03:44:55;;;;;;;31.33;10.63;;;;;;;-149.78;100.00;50498.81;5056794;28;20032;-65
2022/01/19 03:47:20;;;;;;;27.48;10.18;;;;;;;-149.78;100.00;50510.56;5074798;28;20399;-65
2022/01/19 03:49:46;;;;;;;26.10;9.60;;;;;;;-149.78;100.00;50492.97;5074458;28;20438;-65
2022/01/19 03:52:12;;;;;;;25.17;9.52;;;;;;;-149.78;100.00;50471.44;5074398;28;20039;-65
2022/01/19 03:54:40;;;;;;;26.27;10.38;;;;;;;-149.78;100.00;50483.19;5074203;28;20024;-65
2022/01/19 03:57:06;;;;;;;28.85;9.65;;;;;;;-149.78;100.00;50467.53;5074290;28;20048;-65
2022/01/19 03:59:31;;;;;;;24.85;9.85;;;;;;;-149.78;100.00;50487.09;5074742;28;20056;-65
2022/01/19 04:01:58;;;;;;;22.08;8.93;;;;;;;-149.78;100.00;50463.63;5074482;28;20074;-65
2022/01/19 04:07:08;;;;;;;24.10;7.95;;;;;;;-149.78;100.00;50487.09;5073131;28;20044;-65
2022/01/19 04:09:44;;;;;;;20.43;9.30;;;;;;;-149.78;100.00;50491.00;5073984;28;20091;-65
2022/01/19 04:12:16;;;;;;;26.67;10.98;;;;;;;-149.78;100.00;50518.38;5074027;28;20075;-66
2022/01/19 04:14:42;;;;;;;27.20;10.07;;;;;;;-149.78;100.00;50451.88;5056056;28;20032;-66
2022/01/19 04:17:10;;;;;;;23.83;9.18;;;;;;;-149.78;100.00;50455.81;5073993;28;20054;-66
2022/01/19 04:22:07;;;;;;;22.13;8.60;;;;;;;-149.78;100.00;50475.34;5065017;28;20044;-66
2022/01/19 04:24:33;;;;;;;23.65;9.32;;;;;;;-149.78;100.00;50436.25;5073526;28;20033;-66
2022/01/19 04:29:45;;;;;;;22.50;8.50;;;;;;;-149.78;100.00;50489.03;5070821;28;20107;-66
2022/01/19 04:32:18;;;;;;;22.33;8.50;;;;;;;-149.78;100.00;50494.91;5069926;28;20365;-66
2022/01/19 04:34:47;;;;;;;19.10;8.63;;;;;;;-149.78;100.00;50487.09;5073253;28;20044;-66
2022/01/19 05:04:02;;;;;;;17.13;8.68;;;;;;;-149.78;100.00;50444.06;5071413;28;20040;-66
2022/01/19 05:06:30;;;;;;;20.63;9.40;;;;;;;-149.78;100.00;50463.63;5073257;28;20440;-66
2022/01/19 05:14:06;;;;;;;18.48;7.95;;;;;;;-149.78;100.00;50467.53;5073222;28;20102;-66
2022/01/19 05:16:32;;;;;;;21.45;8.77;;;;;;;-149.78;100.00;50471.44;5073222;28;20418;-66
2022/01/19 05:18:57;;;;;;;20.90;8.70;;;;;;;-149.78;100.00;50487.09;5072398;28;20437;-66
2022/01/19 05:21:23;;;;;;;19.50;7.78;;;;;;;-149.78;100.00;50459.72;5073270;28;20539;-66
2022/01/19 05:23:49;;;;;;;25.35;8.27;;;;;;;-149.78;100.00;50420.59;5073163;28;20376;-66
2022/01/19 05:26:15;;;;;;;19.58;8.48;;;;;;;-149.78;100.00;50471.44;5073179;28;20032;-66
2022/01/19 05:28:41;;;;;;;15.07;7.78;;;;;;;-149.78;100.00;50475.34;5073193;28;20472;-66
2022/01/19 05:31:07;;;;;;;19.50;8.13;;;;;;;-149.78;100.00;50451.88;5072994;28;20036;-66
2022/01/19 05:33:33;;;;;;;18.48;7.90;;;;;;;-149.78;100.00;50463.63;5073128;28;20063;-66
2022/01/19 05:35:59;;;;;;;18.15;8.27;;;;;;;-149.78;100.00;50459.72;5071667;28;20636;-66
2022/01/19 05:38:25;;;;;;;23.17;8.48;;;;;;;-149.78;100.00;50479.28;5071562;28;20456;-66
2022/01/19 05:40:51;;;;;;;22.42;8.77;;;;;;;-149.78;100.00;50451.88;5072010;28;20036;-66
2022/01/19 05:43:17;;;;;;;15.60;7.78;;;;;;;-149.78;100.00;50467.53;5072760;28;20055;-66
2022/01/19 05:45:43;;;;;;;21.00;7.47;;;;;;;-149.78;100.00;50485.13;5072747;28;20476;-66
2022/01/19 05:48:09;;;;;;;20.95;7.65;;;;;;;-149.78;100.00;50447.97;5072786;28;20036;-66
2022/01/19 05:50:35;;;;;;;24.05;8.07;;;;;;;-149.78;100.00;50453.84;5072971;28;20056;-66
2022/01/19 05:53:01;;;;;;;18.25;8.48;;;;;;;-149.78;100.00;50477.31;5072578;28;20101;-66
2022/01/19 05:55:26;;;;;;;22.38;8.57;;;;;;;-149.78;100.00;50473.41;5072931;28;20161;-66
2022/01/19 05:57:52;;;;;;;19.00;8.05;;;;;;;-149.78;100.00;50444.06;5072721;28;20037;-66
2022/01/19 06:00:18;;;;;;;17.17;8.23;;;;;;;-149.78;100.00;50467.53;5072865;28;20029;-66
2022/01/19 06:02:44;;;;;;;19.50;8.73;;;;;;;-149.78;100.00;50471.44;5072983;28;20067;-66
2022/01/19 06:05:10;;;;;;;20.48;8.93;;;;;;;-149.78;100.00;50479.28;5053189;28;20503;-66
2022/01/19 06:07:43;;;;;;;20.30;8.30;;;;;;;-149.78;100.00;50481.22;5072974;28;20462;-66
2022/01/19 06:10:11;;;;;;;16.70;8.48;;;;;;;-149.78;100.00;50459.72;5072782;28;20039;-66
2022/01/19 06:12:38;;;;;;;19.70;8.32;;;;;;;-149.78;100.00;50449.94;5057398;28;20492;-65
2022/01/19 06:15:05;;;;;;;19.95;8.32;;;;;;;-149.78;100.00;50432.31;5053328;28;20132;-65
2022/01/19 06:17:31;;;;;;;19.13;8.40;;;;;;;-149.78;100.00;50471.44;5055489;28;20360;-65
2022/01/19 06:19:57;;;;;;;24.60;8.20;;;;;;;-149.78;100.00;50432.31;5036470;28;20045;-65
2022/01/19 06:22:25;;;;;;;15.07;7.30;;;;;;;-149.78;100.00;50483.19;5058721;28;20041;-65
2022/01/19 06:24:51;;;;;;;20.25;8.70;;;;;;;-149.78;100.00;50440.16;5057601;28;20071;-65
2022/01/19 06:27:19;;;;;;;16.42;6.90;;;;;;;-149.78;100.00;50455.81;5051194;28;20060;-66
2022/01/19 06:29:45;;;;;;;19.02;7.03;;;;;;;-149.78;100.00;50471.44;5059157;28;20067;-65
2022/01/19 06:32:11;;;;;;;12.70;6.35;;;;;;;-149.78;100.00;50455.81;5063157;28;20059;-66
2022/01/19 06:34:37;;;;;;;15.32;6.18;;;;;;;-149.78;100.00;50440.16;5058330;28;20037;-66
2022/01/19 06:37:04;;;;;;;15.65;5.80;;;;;;;-149.78;100.00;50436.25;5075033;28;20063;-66
2022/01/19 06:39:29;;;;;;;14.90;6.00;;;;;;;-149.78;100.00;50444.06;5057224;28;20038;-65
2022/01/19 06:41:55;;;;;;;10.75;5.82;;;;;;;-149.78;100.00;50463.63;5057753;28;20182;-65
2022/01/19 06:44:21;;;;;;;14.93;5.55;;;;;;;-149.78;100.00;50473.41;5076300;28;20033;-65
2022/01/19 06:46:46;;;;;;;23.15;6.75;;;;;;;-149.78;100.00;50453.84;5076077;28;20033;-65
2022/01/19 06:49:12;;;;;;;16.48;6.30;;;;;;;-149.78;100.00;50465.56;5041538;28;20143;-65
2022/01/19 06:51:38;;;;;;;16.33;6.47;;;;;;;-149.78;100.00;50467.53;5076097;28;20101;-65
2022/01/19 06:54:05;;;;;;;15.25;6.68;;;;;;;-149.78;100.00;50459.72;5075741;28;20044;-65
2022/01/19 06:56:36;;;;;;;13.48;6.82;;;;;;;-149.78;100.00;50463.63;5058436;28;20044;-65
2022/01/19 06:59:01;;;;;;;14.98;6.22;;;;;;;-149.78;100.00;50436.25;5071516;28;20590;-65
2022/01/19 07:01:31;;;;;;;15.75;5.95;;;;;;;-149.78;100.00;50444.06;5064069;28;20040;-65
2022/01/19 07:03:58;;;;;;;15.38;6.32;;;;;;;-149.78;100.00;50455.81;5060175;28;20082;-65
2022/01/19 07:06:24;;;;;;;14.13;5.80;;;;;;;-149.78;100.00;50440.16;5069300;28;20102;-65
2022/01/19 07:08:49;;;;;;;20.52;6.30;;;;;;;-149.78;100.00;50459.72;5043125;28;20131;-65
2022/01/19 07:11:15;;;;;;;13.95;6.72;;;;;;;-149.78;100.00;50461.66;5075416;28;20039;-65
2022/01/19 07:13:41;;;;;;;12.32;6.15;;;;;;;-149.78;100.00;50461.66;5075803;28;20036;-65
2022/01/19 07:16:06;;;;;;;13.30;6.28;;;;;;;-149.78;100.00;50440.16;5075365;28;20075;-65
2022/01/19 07:18:33;;;;;;;13.30;6.00;;;;;;;-149.78;100.00;50498.81;5074972;28;20396;-66
2022/01/19 07:20:59;;;;;;;18.60;7.10;;;;;;;-149.78;100.00;50483.19;5041758;28;20067;-66
2022/01/19 07:23:25;;;;;;;14.25;5.88;;;;;;;-149.78;100.00;50444.06;5037502;28;20133;-67
2022/01/19 07:25:51;;;;;;;17.92;6.55;;;;;;;-149.78;100.00;50485.13;5074311;28;20120;-67
2022/01/19 07:28:16;;;;;;;16.63;6.85;;;;;;;-149.78;100.00;50459.72;5075213;28;20036;-67
2022/01/19 07:30:42;;;;;;;23.40;8.60;;;;;;;-149.78;100.00;50455.81;5075212;28;20060;-67
2022/01/19 07:33:08;;;;;;;17.55;6.47;;;;;;;-149.78;100.00;50471.44;5074997;28;20502;-67
2022/01/19 07:35:34;;;;;;;22.88;8.07;;;;;;;-149.78;100.00;50479.28;5068353;28;20028;-68
2022/01/19 07:37:59;;;;;;;15.77;7.93;;;;;;;-149.78;100.00;50447.97;5063391;28;20043;-66
2022/01/19 07:40:25;;;;;;;18.85;8.63;;;;;;;-149.78;100.00;50447.97;5067686;28;20032;-66
2022/01/19 07:42:52;;;;;;;14.18;7.40;;;;;;;-149.78;100.00;50447.97;5057905;28;20036;-66
2022/01/19 07:45:18;;;;;;;15.88;7.50;;;;;;;-149.78;100.00;50485.13;5040762;28;20033;-66
2022/01/19 07:47:43;;;;;;;15.95;6.72;;;;;;;-149.78;100.00;50453.84;5058572;28;20392;-67
2022/01/19 07:50:10;;;;;;;13.35;6.68;;;;;;;-149.78;100.00;50469.50;5058467;28;20123;-67
2022/01/19 07:52:36;;;;;;;14.00;6.40;;;;;;;-149.78;100.00;50471.44;5058567;28;20157;-66
2022/01/19 07:55:02;;;;;;;13.70;5.35;;;;;;;-149.78;100.00;50492.97;5053457;28;20037;-66
2022/01/19 07:57:28;;;;;;;11.55;5.50;;;;;;;-149.78;100.00;50492.97;5060061;28;20057;-66
2022/01/19 07:59:54;;;;;;;15.45;6.90;;;;;;;-149.78;100.00;50467.53;5057032;28;20431;-66
2022/01/19 08:02:19;;;;;;;17.63;7.70;;;;;;;-149.78;100.00;50471.44;5056406;28;20395;-66
2022/01/19 08:04:45;;;;;;;21.23;8.30;;;;;;;-149.78;100.00;50459.72;5057036;28;20262;-66
2022/01/19 08:07:11;;;;;;;26.55;10.27;;;;;;;-149.78;100.00;50457.75;5057492;28;20025;-66
2022/01/19 08:09:37;;;;;;;21.15;9.73;;;;;;;-149.78;100.00;50467.53;5056701;28;20033;-65
2022/01/19 08:12:03;;;;;;;27.73;9.90;;;;;;;-149.78;100.00;50447.97;5038227;28;21413;-64
2022/01/19 08:14:29;;;;;;;33.00;13.45;;;;;;;-149.78;100.00;50471.44;5063715;28;20025;-65
2022/01/19 08:16:56;;;;;;;38.47;16.90;;;;;;;-149.78;100.00;50471.44;5058084;28;20033;-65
2022/01/19 08:19:22;;;;;;;42.38;17.60;;;;;;;-149.78;100.00;50447.97;5056908;28;20061;-65
2022/01/19 08:21:48;;;;;;;43.50;17.35;;;;;;;-149.78;100.00;50479.28;5055018;28;20071;-65
2022/01/19 08:24:16;;;;;;;39.72;17.20;;;;;;;-149.78;100.00;50428.41;5061839;28;20385;-66
2022/01/19 08:26:42;;;;;;;40.50;17.65;;;;;;;-149.78;100.00;50467.53;5063249;28;20430;-66
2022/01/19 08:29:09;;;;;;;42.88;17.10;;;;;;;-149.78;100.00;50430.38;5062122;28;20085;-66
2022/01/19 08:31:36;;;;;;;46.25;17.33;;;;;;;-149.78;100.00;50459.72;5045039;28;20075;-65
2022/01/19 08:34:02;;;;;;;38.58;17.35;;;;;;;-149.78;100.00;50436.25;5063590;28;20094;-65
2022/01/19 08:36:28;;;;;;;40.80;16.42;;;;;;;-149.78;100.00;50440.16;5043040;28;20029;-64
2022/01/19 08:38:54;;;;;;;35.95;14.98;;;;;;;-149.78;100.00;50471.44;5041409;28;20423;-66
2022/01/19 08:41:22;;;;;;;35.03;15.25;;;;;;;-149.78;100.00;50451.88;5061326;28;20033;-66
2022/01/19 08:43:48;;;;;;;30.17;12.98;;;;;;;-149.78;100.00;50447.97;5060973;28;20541;-67
2022/01/19 08:46:14;;;;;;;30.10;12.45;;;;;;;-149.78;100.00;50432.31;5062864;28;20032;-66
2022/01/19 08:48:40;;;;;;;26.45;11.45;;;;;;;-149.78;100.00;50459.72;5056903;28;20078;-66
2022/01/19 08:51:06;;;;;;;22.63;9.50;;;;;;;-149.78;100.00;50430.38;5044532;28;20368;-66
2022/01/19 08:53:32;;;;;;;19.58;8.80;;;;;;;-149.78;100.00;50459.72;5060098;28;20045;-66
2022/01/19 08:55:58;;;;;;;19.83;8.32;;;;;;;-149.78;100.00;50436.25;5056711;28;20033;-66
2022/01/19 08:58:24;;;;;;;18.10;8.18;;;;;;;-149.78;100.00;50440.16;5055731;28;20041;-66
2022/01/19 09:00:49;;;;;;;19.27;8.00;;;;;;;-149.78;100.00;50467.53;5044294;28;20040;-66
2022/01/19 09:03:16;;;;;;;19.15;8.85;;;;;;;-149.78;100.00;50424.50;5058379;28;20040;-66
2022/01/19 09:05:42;;;;;;;20.50;8.60;;;;;;;-149.78;100.00;50422.56;5072803;28;20029;-66
2022/01/19 09:08:09;;;;;;;16.45;7.68;;;;;;;-149.78;100.00;50377.56;5072388;28;20109;-66
2022/01/19 09:10:35;;;;;;;12.02;5.95;;;;;;;-149.78;100.00;50428.41;5054946;28;20036;-64
2022/01/19 09:13:01;;;;;;;4.88;2.88;;;;;;;-149.78;100.00;50436.25;5072296;28;20059;-64
2022/01/19 09:15:27;;;;;;;7.88;2.38;;;;;;;-149.78;100.00;50440.16;5072705;28;20488;-66
2022/01/19 09:17:53;;;;;;;5.40;1.92;;;;;;;-149.78;100.00;50401.03;5054378;28;20116;-64
2022/01/19 09:20:19;;;;;;;3.20;1.80;;;;;;;-149.78;100.00;50420.59;5069267;28;20112;-64
2022/01/19 09:22:45;;;;;;;3.15;1.88;;;;;;;-149.78;100.00;50434.28;5055290;28;20634;-65
2022/01/19 09:25:12;;;;;;;7.30;2.00;;;;;;;-149.78;100.00;50416.69;5051573;28;20112;-64
2022/01/19 09:27:38;;;;;;;4.30;1.98;;;;;;;-149.78;100.00;50451.88;5052025;28;20233;-64
2022/01/19 09:30:13;;;;;;;9.57;2.20;;;;;;;-149.78;100.00;50436.25;5040242;28;20037;-64
2022/01/19 09:32:39;;;;;;;9.88;3.63;;;;;;;-149.78;100.00;50455.81;5038673;28;20033;-65
2022/01/19 09:35:09;;;;;;;4.93;2.17;;;;;;;-149.78;100.00;50424.50;5039053;28;20048;-65
2022/01/19 09:37:38;;;;;;;5.90;2.47;;;;;;;-149.78;100.00;50436.25;5057513;28;20036;-65
2022/01/19 09:40:06;;;;;;;9.95;2.03;;;;;;;-149.78;100.00;50430.38;5066089;28;20037;-65
2022/01/19 09:42:31;;;;;;;12.00;2.17;;;;;;;-149.78;100.00;50440.16;5058517;28;20483;-65
2022/01/19 09:44:57;;;;;;;12.52;1.50;;;;;;;-149.78;100.00;50434.28;5053461;28;20033;-66
2022/01/19 09:47:22;;;;;;;6.47;1.77;;;;;;;-149.78;100.00;50447.97;5055549;28;20390;-66
2022/01/19 09:49:48;;;;;;;8.40;1.65;;;;;;;-149.78;100.00;50432.31;5051484;28;20540;-66
2022/01/19 09:52:14;;;;;;;8.02;1.67;;;;;;;-149.78;100.00;50447.97;5038065;28;20060;-66
2022/01/19 09:54:39;;;;;;;11.13;2.53;;;;;;;-149.78;100.00;50451.88;5059664;28;20040;-66
2022/01/19 09:57:07;;;;;;;7.50;2.05;;;;;;;-149.78;100.00;50440.16;5053108;28;20045;-66
2022/01/19 09:59:33;;;;;;;11.10;2.58;;;;;;;-149.78;100.00;50403.00;5071278;28;20043;-66
2022/01/19 10:02:05;;;;;;;10.40;1.50;;;;;;;-149.78;100.00;50440.16;5064696;28;20119;-66
2022/01/19 10:04:35;;;;;;;15.30;2.33;;;;;;;-149.78;100.00;50469.50;5059455;28;20067;-66
2022/01/19 10:07:22;;;;;;;12.73;2.20;;;;;;;-149.78;100.00;50424.50;5063928;28;20047;-66
2022/01/19 10:10:07;;;;;;;5.40;1.92;;;;;;;-149.78;100.00;50428.41;5059983;28;20039;-67
2022/01/19 10:18:31;;;;;;;9.65;2.20;;;;;;;-149.78;100.00;50455.81;5071805;28;20033;-66
2022/01/19 10:21:16;;;;;;;13.45;3.45;;;;;;;-149.78;100.00;50459.72;5059814;28;20431;-66
2022/01/19 10:23:50;;;;;;;11.68;2.17;;;;;;;-149.78;100.00;50428.41;5074917;28;20025;-66
2022/01/19 10:26:23;;;;;;;7.45;1.67;;;;;;;-149.78;100.00;50479.28;5075527;28;20197;-66
2022/01/19 10:29:07;;;;;;;18.20;2.63;;;;;;;-149.78;100.00;50430.38;5071802;28;20036;-66
2022/01/19 10:31:36;;;;;;;14.93;1.85;;;;;;;-149.78;100.00;50469.50;5074968;28;20036;-66
2022/01/19 10:34:14;;;;;;;10.32;1.33;;;;;;;-149.78;100.00;50492.97;5075794;28;20036;-66
2022/01/19 10:36:44;;;;;;;11.43;1.58;;;;;;;-149.78;100.00;50463.63;5067894;28;20060;-66
2022/01/19 10:39:11;;;;;;;18.20;1.83;;;;;;;-149.78;100.00;50451.88;5051153;28;20486;-65
2022/01/19 10:41:56;;;;;;;11.98;1.70;;;;;;;-149.78;100.00;50463.63;5064943;28;20032;-65
2022/01/19 10:44:36;;;;;;;13.90;1.77;;;;;;;-149.78;100.00;50449.94;5067080;28;20032;-65
2022/01/19 10:47:03;;;;;;;14.40;1.90;;;;;;;-149.78;100.00;50447.97;5056629;28;20477;-65
2022/01/19 10:49:48;;;;;;;15.82;1.58;;;;;;;-149.78;100.00;50420.59;5062321;28;20060;-65
2022/01/19 10:52:37;;;;;;;13.13;1.98;;;;;;;-149.78;100.00;50447.97;5060219;28;20046;-65
2022/01/19 10:55:06;;;;;;;12.45;1.48;;;;;;;-149.78;100.00;50449.94;5063189;28;20043;-65
2022/01/19 10:57:36;;;;;;;12.48;2.53;;;;;;;-149.78;100.00;50412.78;5075761;28;20099;-67
2022/01/19 11:00:21;;;;;;;18.73;2.92;;;;;;;-149.78;100.00;50436.25;5074267;28;20024;-66
2022/01/19 11:02:49;;;;;;;13.48;1.65;;;;;;;-149.78;100.00;50418.63;5075407;28;20070;-66
2022/01/19 11:05:16;;;;;;;10.18;2.22;;;;;;;-149.78;100.00;50416.69;5075414;28;20027;-66
2022/01/19 11:07:42;;;;;;;10.15;1.67;;;;;;;-149.78;100.00;50436.25;5072464;28;20123;-66
2022/01/19 11:10:12;;;;;;;8.18;1.20;;;;;;;-149.78;100.00;50420.59;5066708;28;20059;-66
2022/01/19 11:12:53;;;;;;;8.93;1.30;;;;;;;-149.78;100.00;50418.63;5074299;28;20040;-66
2022/01/19 11:15:19;;;;;;;11.80;2.00;;;;;;;-149.78;100.00;50463.63;5072219;28;20062;-66
2022/01/19 11:17:47;;;;;;;7.50;1.38;;;;;;;-149.78;100.00;50426.47;5058467;28;20020;-66
2022/01/19 11:20:16;;;;;;;7.22;1.70;;;;;;;-149.78;100.00;50444.06;5059326;28;20373;-66
2022/01/19 11:23:15;;;;;;;13.55;2.30;;;;;;;-149.78;100.00;50432.31;5060408;28;20116;-66
2022/01/19 11:26:03;;;;;;;10.27;2.47;;;;;;;-149.78;100.00;50424.50;5057685;28;20379;-66
2022/01/19 11:28:39;;;;;;;13.25;1.98;;;;;;;-149.78;100.00;50457.75;5059467;28;20055;-66
2022/01/19 11:31:14;;;;;;;14.88;1.58;;;;;;;-149.78;100.00;50420.59;5062007;28;20522;-66
2022/01/19 11:33:51;;;;;;;11.63;2.38;;;;;;;-149.78;100.00;50432.31;5060127;28;20049;-66
2022/01/19 11:36:31;;;;;;;10.98;1.55;;;;;;;-149.78;100.00;50424.50;5043361;28;20041;-66
2022/01/19 11:39:09;;;;;;;7.88;1.42;;;;;;;-149.78;100.00;50463.63;5061266;28;20032;-66
2022/01/19 11:41:35;;;;;;;12.90;1.85;;;;;;;-149.78;100.00;50459.72;5062461;28;20479;-66
2022/01/19 11:44:01;;;;;;;9.18;1.63;;;;;;;-149.78;100.00;50469.50;5065196;28;20108;-66
2022/01/19 11:46:31;;;;;;;9.93;1.98;;;;;;;-149.78;100.00;50432.31;5061822;28;20525;-66
2022/01/19 11:48:58;;;;;;;11.00;1.52;;;;;;;-149.78;100.00;50426.47;5058952;28;20095;-66
2022/01/19 11:51:27;;;;;;;19.45;1.85;;;;;;;-149.78;100.00;50428.41;5065838;28;20036;-65
2022/01/19 11:54:10;;;;;;;7.35;1.75;;;;;;;-149.78;100.00;50428.41;5062453;28;20492;-65
2022/01/19 11:56:58;;;;;;;13.02;1.70;;;;;;;-149.78;100.00;50426.47;5061640;28;20035;-65
2022/01/19 11:59:30;;;;;;;17.67;2.47;;;;;;;-149.78;100.00;50440.16;5062148;28;20815;-65
2022/01/19 12:02:14;;;;;;;;;;;;;;;-149.78;100.00;50401.03;5063791;28;20048;-64
2022/01/19 12:04:40;;;;;;;7.68;1.75;;;;;;;-149.78;100.00;50387.34;5061053;28;19973;-63
2022/01/19 12:07:36;;;;;;;17.38;2.90;;;;;;;-149.78;100.00;50434.28;5063363;28;20033;-63
2022/01/19 12:10:04;;;;;;;10.13;2.08;;;;;;;-149.78;100.00;50404.94;5060406;28;20494;-62
2022/01/19 12:12:34;;;;;;;11.35;1.73;;;;;;;-149.78;100.00;50412.78;5055246;28;20033;-62
2022/01/19 12:15:05;;;;;;;15.75;2.38;;;;;;;-149.78;100.00;50432.31;5064610;28;20124;-63
2022/01/19 12:17:55;;;;;;;16.42;2.13;;;;;;;-149.78;100.00;50414.72;5064401;28;20411;-62
2022/01/19 12:20:45;;;;;;;8.80;1.58;;;;;;;-149.78;100.00;50471.44;5056971;28;20136;-63
2022/01/19 12:23:28;;;;;;;14.68;2.20;;;;;;;-149.78;100.00;50430.38;5063455;28;20021;-65
2022/01/19 12:25:55;;;;;;;9.80;1.58;;;;;;;-149.78;100.00;50463.63;5046984;28;20021;-66
2022/01/19 12:28:38;;;;;;;8.30;1.52;;;;;;;-149.78;100.00;50428.41;5066270;28;20041;-66
2022/01/19 12:31:26;;;;;;;10.45;1.50;;;;;;;-149.78;100.00;50428.41;5073320;28;20156;-65
2022/01/19 12:34:07;;;;;;;13.38;1.80;;;;;;;-149.78;100.00;50459.72;5042657;28;20049;-67
2022/01/19 12:37:00;;;;;;;16.27;1.77;;;;;;;-149.78;100.00;50447.97;5073771;28;20036;-65
2022/01/19 12:39:26;;;;;;;14.38;2.08;;;;;;;-149.78;100.00;50438.19;5065803;28;20084;-67